sensor_id;sensor_type;location;lat;lon;timestamp;P1;durP1;ratioP1;P2;durP2;ratioP2
59756;SDS011;45631;51.962;5.974;2023-08-21T00:00:16;8.45;;;2.28;;
59756;SDS011;45631;51.962;5.974;2023-08-21T00:02:44;10.40;;;2.65;;
59756;SDS011;45631;51.962;5.974;2023-08-21T00:05:13;8.30;;;2.20;;
59756;SDS011;45631;51.962;5.974;2023-08-21T00:07:41;8.05;;;2.28;;
59756;SDS011;45631;51.962;5.974;2023-08-21T00:10:10;6.70;;;1.95;;
59756;SDS011;45631;51.962;5.974;2023-08-21T00:12:40;7.97;;;2.20;;
59756;SDS011;45631;51.962;5.974;2023-08-21T00:15:10;5.78;;;1.95;;
59756;SDS011;45631;51.962;5.974;2023-08-21T00:17:38;7.75;;;2.33;;
59756;SDS011;45631;51.962;5.974;2023-08-21T00:20:07;9.60;;;2.00;;
59756;SDS011;45631;51.962;5.974;2023-08-21T00:22:36;8.48;;;2.00;;
59756;SDS011;45631;51.962;5.974;2023-08-21T00:25:05;7.38;;;2.00;;
59756;SDS011;45631;51.962;5.974;2023-08-21T00:27:33;7.50;;;2.20;;
59756;SDS011;45631;51.962;5.974;2023-08-21T00:30:04;9.63;;;2.35;;
59756;SDS011;45631;51.962;5.974;2023-08-21T00:32:37;8.10;;;2.47;;
59756;SDS011;45631;51.962;5.974;2023-08-21T00:35:06;9.57;;;2.33;;
59756;SDS011;45631;51.962;5.974;2023-08-21T00:37:35;9.43;;;2.47;;
59756;SDS011;45631;51.962;5.974;2023-08-21T00:40:03;9.68;;;2.53;;
59756;SDS011;45631;51.962;5.974;2023-08-21T00:42:32;6.93;;;2.40;;
59756;SDS011;45631;51.962;5.974;2023-08-21T00:45:01;8.95;;;2.50;;
59756;SDS011;45631;51.962;5.974;2023-08-21T00:47:30;9.18;;;2.20;;
59756;SDS011;45631;51.962;5.974;2023-08-21T00:49:59;9.13;;;2.53;;
59756;SDS011;45631;51.962;5.974;2023-08-21T00:52:28;7.55;;;2.17;;
59756;SDS011;45631;51.962;5.974;2023-08-21T00:54:56;6.60;;;2.38;;
59756;SDS011;45631;51.962;5.974;2023-08-21T00:57:25;9.63;;;2.55;;
59756;SDS011;45631;51.962;5.974;2023-08-21T00:59:54;11.32;;;2.78;;
59756;SDS011;45631;51.962;5.974;2023-08-21T01:02:22;6.65;;;2.53;;
59756;SDS011;45631;51.962;5.974;2023-08-21T01:04:50;8.75;;;2.47;;
59756;SDS011;45631;51.962;5.974;2023-08-21T01:07:20;9.32;;;2.92;;
59756;SDS011;45631;51.962;5.974;2023-08-21T01:09:49;9.77;;;2.50;;
59756;SDS011;45631;51.962;5.974;2023-08-21T01:12:25;8.43;;;2.45;;
59756;SDS011;45631;51.962;5.974;2023-08-21T01:15:02;7.40;;;2.50;;
59756;SDS011;45631;51.962;5.974;2023-08-21T01:17:33;7.53;;;2.35;;
59756;SDS011;45631;51.962;5.974;2023-08-21T01:20:03;8.32;;;2.92;;
59756;SDS011;45631;51.962;5.974;2023-08-21T01:22:38;9.10;;;2.35;;
59756;SDS011;45631;51.962;5.974;2023-08-21T01:25:09;9.55;;;2.67;;
59756;SDS011;45631;51.962;5.974;2023-08-21T01:27:37;11.20;;;2.78;;
59756;SDS011;45631;51.962;5.974;2023-08-21T01:30:07;9.32;;;2.80;;
59756;SDS011;45631;51.962;5.974;2023-08-21T01:32:40;8.65;;;2.53;;
59756;SDS011;45631;51.962;5.974;2023-08-21T01:35:16;9.13;;;2.40;;
59756;SDS011;45631;51.962;5.974;2023-08-21T01:37:45;9.32;;;2.55;;
59756;SDS011;45631;51.962;5.974;2023-08-21T01:40:20;6.90;;;2.30;;
59756;SDS011;45631;51.962;5.974;2023-08-21T01:42:49;7.57;;;2.13;;
59756;SDS011;45631;51.962;5.974;2023-08-21T01:45:17;8.95;;;2.67;;
59756;SDS011;45631;51.962;5.974;2023-08-21T01:47:45;8.60;;;2.92;;
59756;SDS011;45631;51.962;5.974;2023-08-21T01:50:13;7.22;;;2.08;;
59756;SDS011;45631;51.962;5.974;2023-08-21T01:52:42;7.20;;;2.17;;
59756;SDS011;45631;51.962;5.974;2023-08-21T01:55:10;12.32;;;2.50;;
59756;SDS011;45631;51.962;5.974;2023-08-21T01:57:39;9.45;;;2.22;;
59756;SDS011;45631;51.962;5.974;2023-08-21T02:00:09;9.13;;;2.17;;
59756;SDS011;45631;51.962;5.974;2023-08-21T02:02:39;8.15;;;2.50;;
59756;SDS011;45631;51.962;5.974;2023-08-21T02:05:08;8.52;;;2.70;;
59756;SDS011;45631;51.962;5.974;2023-08-21T02:07:36;9.00;;;2.88;;
59756;SDS011;45631;51.962;5.974;2023-08-21T02:10:04;7.50;;;2.53;;
59756;SDS011;45631;51.962;5.974;2023-08-21T02:12:33;6.95;;;2.30;;
59756;SDS011;45631;51.962;5.974;2023-08-21T02:15:08;7.50;;;2.13;;
59756;SDS011;45631;51.962;5.974;2023-08-21T02:17:37;7.95;;;2.40;;
59756;SDS011;45631;51.962;5.974;2023-08-21T02:20:10;8.20;;;2.55;;
59756;SDS011;45631;51.962;5.974;2023-08-21T02:22:38;8.90;;;2.63;;
59756;SDS011;45631;51.962;5.974;2023-08-21T02:25:07;8.48;;;2.53;;
59756;SDS011;45631;51.962;5.974;2023-08-21T02:27:35;9.35;;;2.50;;
59756;SDS011;45631;51.962;5.974;2023-08-21T02:30:04;5.47;;;2.25;;
59756;SDS011;45631;51.962;5.974;2023-08-21T02:32:35;5.50;;;2.00;;
59756;SDS011;45631;51.962;5.974;2023-08-21T02:35:05;7.05;;;2.30;;
59756;SDS011;45631;51.962;5.974;2023-08-21T02:37:34;10.38;;;2.20;;
59756;SDS011;45631;51.962;5.974;2023-08-21T02:40:06;6.35;;;2.80;;
59756;SDS011;45631;51.962;5.974;2023-08-21T02:42:35;6.72;;;2.40;;
59756;SDS011;45631;51.962;5.974;2023-08-21T02:45:04;8.23;;;2.70;;
59756;SDS011;45631;51.962;5.974;2023-08-21T02:47:37;6.70;;;2.15;;
59756;SDS011;45631;51.962;5.974;2023-08-21T02:50:06;6.68;;;2.47;;
59756;SDS011;45631;51.962;5.974;2023-08-21T02:52:36;7.97;;;2.25;;
59756;SDS011;45631;51.962;5.974;2023-08-21T02:55:06;9.15;;;2.63;;
59756;SDS011;45631;51.962;5.974;2023-08-21T02:57:34;7.80;;;2.13;;
59756;SDS011;45631;51.962;5.974;2023-08-21T03:00:03;9.60;;;2.60;;
59756;SDS011;45631;51.962;5.974;2023-08-21T03:02:33;7.60;;;2.38;;
59756;SDS011;45631;51.962;5.974;2023-08-21T03:05:03;5.95;;;1.85;;
59756;SDS011;45631;51.962;5.974;2023-08-21T03:07:31;6.72;;;2.17;;
59756;SDS011;45631;51.962;5.974;2023-08-21T03:10:00;4.20;;;1.90;;
59756;SDS011;45631;51.962;5.974;2023-08-21T03:12:28;7.10;;;2.33;;
59756;SDS011;45631;51.962;5.974;2023-08-21T03:14:56;7.65;;;2.22;;
59756;SDS011;45631;51.962;5.974;2023-08-21T03:17:25;6.93;;;2.20;;
59756;SDS011;45631;51.962;5.974;2023-08-21T03:19:53;6.03;;;2.05;;
59756;SDS011;45631;51.962;5.974;2023-08-21T03:22:22;6.32;;;2.20;;
59756;SDS011;45631;51.962;5.974;2023-08-21T03:24:50;11.18;;;2.97;;
59756;SDS011;45631;51.962;5.974;2023-08-21T03:27:19;8.18;;;2.15;;
59756;SDS011;45631;51.962;5.974;2023-08-21T03:29:47;6.80;;;1.92;;
59756;SDS011;45631;51.962;5.974;2023-08-21T03:32:15;5.43;;;1.70;;
59756;SDS011;45631;51.962;5.974;2023-08-21T03:34:44;8.23;;;2.40;;
59756;SDS011;45631;51.962;5.974;2023-08-21T03:37:12;6.03;;;1.90;;
59756;SDS011;45631;51.962;5.974;2023-08-21T03:39:42;6.57;;;1.95;;
59756;SDS011;45631;51.962;5.974;2023-08-21T03:42:11;5.63;;;1.95;;
59756;SDS011;45631;51.962;5.974;2023-08-21T03:44:39;10.18;;;2.15;;
59756;SDS011;45631;51.962;5.974;2023-08-21T03:47:07;7.50;;;2.10;;
59756;SDS011;45631;51.962;5.974;2023-08-21T03:49:38;7.57;;;2.40;;
59756;SDS011;45631;51.962;5.974;2023-08-21T03:52:06;7.45;;;2.00;;
59756;SDS011;45631;51.962;5.974;2023-08-21T03:54:34;10.15;;;2.50;;
59756;SDS011;45631;51.962;5.974;2023-08-21T03:57:04;6.00;;;2.05;;
59756;SDS011;45631;51.962;5.974;2023-08-21T03:59:33;7.40;;;2.05;;
59756;SDS011;45631;51.962;5.974;2023-08-21T04:02:01;6.55;;;2.05;;
59756;SDS011;45631;51.962;5.974;2023-08-21T04:04:29;6.35;;;2.00;;
59756;SDS011;45631;51.962;5.974;2023-08-21T04:06:57;7.90;;;2.20;;
59756;SDS011;45631;51.962;5.974;2023-08-21T04:09:26;8.88;;;2.47;;
59756;SDS011;45631;51.962;5.974;2023-08-21T04:11:54;7.45;;;2.08;;
59756;SDS011;45631;51.962;5.974;2023-08-21T04:14:23;7.75;;;2.00;;
59756;SDS011;45631;51.962;5.974;2023-08-21T04:16:55;7.25;;;2.53;;
59756;SDS011;45631;51.962;5.974;2023-08-21T04:19:23;6.38;;;2.10;;
59756;SDS011;45631;51.962;5.974;2023-08-21T04:21:51;6.07;;;1.90;;
59756;SDS011;45631;51.962;5.974;2023-08-21T04:24:20;9.27;;;2.13;;
59756;SDS011;45631;51.962;5.974;2023-08-21T04:26:48;5.65;;;1.85;;
59756;SDS011;45631;51.962;5.974;2023-08-21T04:29:16;7.30;;;2.20;;
59756;SDS011;45631;51.962;5.974;2023-08-21T04:31:46;7.30;;;2.08;;
59756;SDS011;45631;51.962;5.974;2023-08-21T04:34:14;5.70;;;1.77;;
59756;SDS011;45631;51.962;5.974;2023-08-21T04:36:42;6.85;;;2.17;;
59756;SDS011;45631;51.962;5.974;2023-08-21T04:39:10;8.43;;;2.13;;
59756;SDS011;45631;51.962;5.974;2023-08-21T04:41:39;7.63;;;1.88;;
59756;SDS011;45631;51.962;5.974;2023-08-21T04:44:07;6.93;;;1.85;;
59756;SDS011;45631;51.962;5.974;2023-08-21T04:46:36;6.57;;;2.13;;
59756;SDS011;45631;51.962;5.974;2023-08-21T04:49:05;7.15;;;2.15;;
59756;SDS011;45631;51.962;5.974;2023-08-21T04:51:33;6.82;;;1.75;;
59756;SDS011;45631;51.962;5.974;2023-08-21T04:54:04;8.15;;;2.17;;
59756;SDS011;45631;51.962;5.974;2023-08-21T04:56:32;8.15;;;2.40;;
59756;SDS011;45631;51.962;5.974;2023-08-21T04:59:01;5.45;;;1.77;;
59756;SDS011;45631;51.962;5.974;2023-08-21T05:01:30;9.10;;;2.33;;
59756;SDS011;45631;51.962;5.974;2023-08-21T05:03:58;7.35;;;1.92;;
59756;SDS011;45631;51.962;5.974;2023-08-21T05:06:27;8.20;;;1.80;;
59756;SDS011;45631;51.962;5.974;2023-08-21T05:08:55;6.38;;;1.92;;
59756;SDS011;45631;51.962;5.974;2023-08-21T05:11:23;6.13;;;1.63;;
59756;SDS011;45631;51.962;5.974;2023-08-21T05:13:52;4.75;;;1.58;;
59756;SDS011;45631;51.962;5.974;2023-08-21T05:16:20;9.70;;;1.80;;
59756;SDS011;45631;51.962;5.974;2023-08-21T05:18:48;6.15;;;2.05;;
59756;SDS011;45631;51.962;5.974;2023-08-21T05:21:16;8.45;;;1.85;;
59756;SDS011;45631;51.962;5.974;2023-08-21T05:23:46;8.02;;;2.00;;
59756;SDS011;45631;51.962;5.974;2023-08-21T05:26:14;7.32;;;1.70;;
59756;SDS011;45631;51.962;5.974;2023-08-21T05:28:42;8.20;;;1.88;;
59756;SDS011;45631;51.962;5.974;2023-08-21T05:31:10;6.88;;;1.95;;
59756;SDS011;45631;51.962;5.974;2023-08-21T05:33:38;9.50;;;2.15;;
59756;SDS011;45631;51.962;5.974;2023-08-21T05:36:07;7.55;;;1.83;;
59756;SDS011;45631;51.962;5.974;2023-08-21T05:38:35;8.48;;;1.85;;
59756;SDS011;45631;51.962;5.974;2023-08-21T05:41:04;6.75;;;1.45;;
59756;SDS011;45631;51.962;5.974;2023-08-21T05:43:33;9.13;;;2.40;;
59756;SDS011;45631;51.962;5.974;2023-08-21T05:46:01;9.73;;;2.28;;
59756;SDS011;45631;51.962;5.974;2023-08-21T05:48:29;9.68;;;2.15;;
59756;SDS011;45631;51.962;5.974;2023-08-21T05:50:57;9.10;;;2.60;;
59756;SDS011;45631;51.962;5.974;2023-08-21T05:53:26;7.95;;;1.92;;
59756;SDS011;45631;51.962;5.974;2023-08-21T05:55:54;10.25;;;2.50;;
59756;SDS011;45631;51.962;5.974;2023-08-21T05:58:23;9.68;;;1.90;;
59756;SDS011;45631;51.962;5.974;2023-08-21T06:00:55;7.72;;;2.00;;
59756;SDS011;45631;51.962;5.974;2023-08-21T06:03:24;6.70;;;2.10;;
59756;SDS011;45631;51.962;5.974;2023-08-21T06:05:52;11.10;;;2.00;;
59756;SDS011;45631;51.962;5.974;2023-08-21T06:08:20;10.52;;;2.22;;
59756;SDS011;45631;51.962;5.974;2023-08-21T06:10:50;5.90;;;1.70;;
59756;SDS011;45631;51.962;5.974;2023-08-21T06:13:19;8.68;;;2.10;;
59756;SDS011;45631;51.962;5.974;2023-08-21T06:15:48;7.45;;;1.77;;
59756;SDS011;45631;51.962;5.974;2023-08-21T06:18:16;8.18;;;1.90;;
59756;SDS011;45631;51.962;5.974;2023-08-21T06:20:45;9.38;;;1.80;;
59756;SDS011;45631;51.962;5.974;2023-08-21T06:23:13;9.55;;;2.20;;
59756;SDS011;45631;51.962;5.974;2023-08-21T06:25:41;4.75;;;1.83;;
59756;SDS011;45631;51.962;5.974;2023-08-21T06:28:10;8.80;;;2.30;;
59756;SDS011;45631;51.962;5.974;2023-08-21T06:30:41;9.63;;;1.92;;
59756;SDS011;45631;51.962;5.974;2023-08-21T06:33:11;8.85;;;1.90;;
59756;SDS011;45631;51.962;5.974;2023-08-21T06:35:40;9.30;;;1.60;;
59756;SDS011;45631;51.962;5.974;2023-08-21T06:38:08;8.13;;;1.80;;
59756;SDS011;45631;51.962;5.974;2023-08-21T06:40:36;9.75;;;2.03;;
59756;SDS011;45631;51.962;5.974;2023-08-21T06:43:04;9.15;;;2.00;;
59756;SDS011;45631;51.962;5.974;2023-08-21T06:45:33;9.27;;;2.28;;
59756;SDS011;45631;51.962;5.974;2023-08-21T06:48:01;12.48;;;2.17;;
59756;SDS011;45631;51.962;5.974;2023-08-21T06:50:31;8.60;;;1.70;;
59756;SDS011;45631;51.962;5.974;2023-08-21T06:52:59;8.07;;;2.00;;
59756;SDS011;45631;51.962;5.974;2023-08-21T06:55:27;9.63;;;1.63;;
59756;SDS011;45631;51.962;5.974;2023-08-21T06:57:56;9.80;;;2.28;;
59756;SDS011;45631;51.962;5.974;2023-08-21T07:00:24;9.25;;;2.25;;
59756;SDS011;45631;51.962;5.974;2023-08-21T07:02:54;9.13;;;2.22;;
59756;SDS011;45631;51.962;5.974;2023-08-21T07:05:23;8.75;;;2.03;;
59756;SDS011;45631;51.962;5.974;2023-08-21T07:07:52;9.82;;;2.45;;
59756;SDS011;45631;51.962;5.974;2023-08-21T07:10:21;10.25;;;2.10;;
59756;SDS011;45631;51.962;5.974;2023-08-21T07:12:49;9.85;;;2.20;;
59756;SDS011;45631;51.962;5.974;2023-08-21T07:15:17;9.50;;;2.08;;
59756;SDS011;45631;51.962;5.974;2023-08-21T07:17:46;7.85;;;2.00;;
59756;SDS011;45631;51.962;5.974;2023-08-21T07:20:14;10.30;;;2.10;;
59756;SDS011;45631;51.962;5.974;2023-08-21T07:22:42;7.93;;;1.60;;
59756;SDS011;45631;51.962;5.974;2023-08-21T07:25:12;6.85;;;1.77;;
59756;SDS011;45631;51.962;5.974;2023-08-21T07:27:40;10.15;;;2.42;;
59756;SDS011;45631;51.962;5.974;2023-08-21T07:30:11;9.75;;;1.92;;
59756;SDS011;45631;51.962;5.974;2023-08-21T07:32:39;8.80;;;1.92;;
59756;SDS011;45631;51.962;5.974;2023-08-21T07:35:08;7.65;;;1.83;;
59756;SDS011;45631;51.962;5.974;2023-08-21T07:37:37;8.52;;;1.83;;
59756;SDS011;45631;51.962;5.974;2023-08-21T07:40:07;7.07;;;2.05;;
59756;SDS011;45631;51.962;5.974;2023-08-21T07:42:37;7.35;;;2.25;;
59756;SDS011;45631;51.962;5.974;2023-08-21T07:45:06;9.68;;;2.00;;
59756;SDS011;45631;51.962;5.974;2023-08-21T07:47:35;8.73;;;1.90;;
59756;SDS011;45631;51.962;5.974;2023-08-21T07:50:04;8.50;;;1.92;;
59756;SDS011;45631;51.962;5.974;2023-08-21T07:52:33;9.52;;;2.20;;
59756;SDS011;45631;51.962;5.974;2023-08-21T07:55:03;8.63;;;2.00;;
59756;SDS011;45631;51.962;5.974;2023-08-21T07:57:31;8.07;;;2.03;;
59756;SDS011;45631;51.962;5.974;2023-08-21T08:00:01;6.20;;;1.42;;
59756;SDS011;45631;51.962;5.974;2023-08-21T08:02:31;9.18;;;2.33;;
59756;SDS011;45631;51.962;5.974;2023-08-21T08:05:02;7.30;;;2.22;;
59756;SDS011;45631;51.962;5.974;2023-08-21T08:07:30;7.18;;;1.88;;
59756;SDS011;45631;51.962;5.974;2023-08-21T08:09:59;8.20;;;1.95;;
59756;SDS011;45631;51.962;5.974;2023-08-21T08:12:27;9.95;;;2.08;;
59756;SDS011;45631;51.962;5.974;2023-08-21T08:14:55;7.13;;;1.92;;
59756;SDS011;45631;51.962;5.974;2023-08-21T08:17:27;10.10;;;2.38;;
59756;SDS011;45631;51.962;5.974;2023-08-21T08:19:55;10.63;;;2.53;;
59756;SDS011;45631;51.962;5.974;2023-08-21T08:22:24;9.85;;;2.30;;
59756;SDS011;45631;51.962;5.974;2023-08-21T08:24:54;9.88;;;2.20;;
59756;SDS011;45631;51.962;5.974;2023-08-21T08:27:23;10.60;;;2.30;;
59756;SDS011;45631;51.962;5.974;2023-08-21T08:29:51;8.07;;;2.08;;
59756;SDS011;45631;51.962;5.974;2023-08-21T08:32:19;9.68;;;2.08;;
59756;SDS011;45631;51.962;5.974;2023-08-21T08:34:49;9.82;;;1.90;;
59756;SDS011;45631;51.962;5.974;2023-08-21T08:37:17;7.93;;;2.08;;
59756;SDS011;45631;51.962;5.974;2023-08-21T08:39:46;10.80;;;2.50;;
59756;SDS011;45631;51.962;5.974;2023-08-21T08:42:15;8.55;;;2.13;;
59756;SDS011;45631;51.962;5.974;2023-08-21T08:44:43;8.60;;;2.13;;
59756;SDS011;45631;51.962;5.974;2023-08-21T08:47:11;8.98;;;2.40;;
59756;SDS011;45631;51.962;5.974;2023-08-21T08:49:45;6.40;;;2.13;;
59756;SDS011;45631;51.962;5.974;2023-08-21T08:52:16;10.45;;;2.95;;
59756;SDS011;45631;51.962;5.974;2023-08-21T08:54:46;11.40;;;3.38;;
59756;SDS011;45631;51.962;5.974;2023-08-21T08:57:14;6.45;;;2.67;;
59756;SDS011;45631;51.962;5.974;2023-08-21T08:59:42;12.00;;;2.80;;
59756;SDS011;45631;51.962;5.974;2023-08-21T09:02:10;14.32;;;3.67;;
59756;SDS011;45631;51.962;5.974;2023-08-21T09:04:39;9.43;;;2.85;;
59756;SDS011;45631;51.962;5.974;2023-08-21T09:07:07;9.18;;;3.10;;
59756;SDS011;45631;51.962;5.974;2023-08-21T09:09:41;9.77;;;3.25;;
59756;SDS011;45631;51.962;5.974;2023-08-21T09:12:13;8.32;;;2.70;;
59756;SDS011;45631;51.962;5.974;2023-08-21T09:14:42;9.18;;;2.75;;
59756;SDS011;45631;51.962;5.974;2023-08-21T09:17:11;11.20;;;2.60;;
59756;SDS011;45631;51.962;5.974;2023-08-21T09:19:40;12.40;;;2.92;;
59756;SDS011;45631;51.962;5.974;2023-08-21T09:22:09;7.97;;;2.03;;
59756;SDS011;45631;51.962;5.974;2023-08-21T09:24:40;7.38;;;1.98;;
59756;SDS011;45631;51.962;5.974;2023-08-21T09:27:27;8.35;;;2.00;;
59756;SDS011;45631;51.962;5.974;2023-08-21T09:29:55;8.25;;;1.80;;
59756;SDS011;45631;51.962;5.974;2023-08-21T09:32:25;8.45;;;1.75;;
59756;SDS011;45631;51.962;5.974;2023-08-21T09:34:53;7.53;;;1.80;;
59756;SDS011;45631;51.962;5.974;2023-08-21T09:37:21;6.80;;;1.50;;
59756;SDS011;45631;51.962;5.974;2023-08-21T09:40:01;7.95;;;1.70;;
59756;SDS011;45631;51.962;5.974;2023-08-21T09:42:31;7.20;;;1.63;;
59756;SDS011;45631;51.962;5.974;2023-08-21T09:45:00;9.57;;;1.80;;
59756;SDS011;45631;51.962;5.974;2023-08-21T09:47:30;8.32;;;1.77;;
59756;SDS011;45631;51.962;5.974;2023-08-21T09:50:02;9.55;;;1.60;;
59756;SDS011;45631;51.962;5.974;2023-08-21T09:52:31;7.25;;;1.38;;
59756;SDS011;45631;51.962;5.974;2023-08-21T09:54:59;8.18;;;1.70;;
59756;SDS011;45631;51.962;5.974;2023-08-21T09:57:32;23.95;;;2.90;;
59756;SDS011;45631;51.962;5.974;2023-08-21T10:00:02;11.43;;;1.80;;
59756;SDS011;45631;51.962;5.974;2023-08-21T10:02:41;7.93;;;1.40;;
59756;SDS011;45631;51.962;5.974;2023-08-21T10:05:15;9.25;;;1.60;;
59756;SDS011;45631;51.962;5.974;2023-08-21T10:07:45;6.72;;;1.88;;
59756;SDS011;45631;51.962;5.974;2023-08-21T10:10:18;8.60;;;1.98;;
59756;SDS011;45631;51.962;5.974;2023-08-21T10:12:47;5.43;;;1.35;;
59756;SDS011;45631;51.962;5.974;2023-08-21T10:15:16;7.03;;;1.90;;
59756;SDS011;45631;51.962;5.974;2023-08-21T10:17:44;6.30;;;1.50;;
59756;SDS011;45631;51.962;5.974;2023-08-21T10:20:13;8.38;;;1.67;;
59756;SDS011;45631;51.962;5.974;2023-08-21T10:22:53;10.48;;;1.88;;
59756;SDS011;45631;51.962;5.974;2023-08-21T10:25:24;6.30;;;1.60;;
59756;SDS011;45631;51.962;5.974;2023-08-21T10:27:57;6.85;;;1.58;;
59756;SDS011;45631;51.962;5.974;2023-08-21T10:30:27;8.50;;;1.85;;
59756;SDS011;45631;51.962;5.974;2023-08-21T10:32:58;6.03;;;1.42;;
59756;SDS011;45631;51.962;5.974;2023-08-21T10:35:28;7.65;;;1.50;;
59756;SDS011;45631;51.962;5.974;2023-08-21T10:38:07;5.65;;;1.65;;
59756;SDS011;45631;51.962;5.974;2023-08-21T10:40:38;7.70;;;1.35;;
59756;SDS011;45631;51.962;5.974;2023-08-21T10:46:04;8.05;;;1.50;;
59756;SDS011;45631;51.962;5.974;2023-08-21T10:48:33;7.63;;;1.30;;
59756;SDS011;45631;51.962;5.974;2023-08-21T10:51:02;6.60;;;1.40;;
59756;SDS011;45631;51.962;5.974;2023-08-21T10:53:32;5.40;;;1.25;;
59756;SDS011;45631;51.962;5.974;2023-08-21T10:56:02;5.93;;;1.30;;
59756;SDS011;45631;51.962;5.974;2023-08-21T10:58:34;6.35;;;1.70;;
59756;SDS011;45631;51.962;5.974;2023-08-21T11:01:02;8.43;;;1.40;;
59756;SDS011;45631;51.962;5.974;2023-08-21T11:03:31;5.10;;;1.20;;
59756;SDS011;45631;51.962;5.974;2023-08-21T11:06:03;5.65;;;1.33;;
59756;SDS011;45631;51.962;5.974;2023-08-21T11:08:32;5.72;;;1.30;;
59756;SDS011;45631;51.962;5.974;2023-08-21T11:11:02;4.97;;;1.40;;
59756;SDS011;45631;51.962;5.974;2023-08-21T11:13:31;5.93;;;1.30;;
59756;SDS011;45631;51.962;5.974;2023-08-21T11:16:00;7.75;;;1.67;;
59756;SDS011;45631;51.962;5.974;2023-08-21T11:18:29;5.75;;;1.40;;
59756;SDS011;45631;51.962;5.974;2023-08-21T11:21:05;5.95;;;1.30;;
59756;SDS011;45631;51.962;5.974;2023-08-21T11:23:35;6.22;;;1.40;;
59756;SDS011;45631;51.962;5.974;2023-08-21T11:26:06;5.93;;;1.30;;
59756;SDS011;45631;51.962;5.974;2023-08-21T11:28:41;6.68;;;1.40;;
59756;SDS011;45631;51.962;5.974;2023-08-21T11:31:09;7.00;;;1.55;;
59756;SDS011;45631;51.962;5.974;2023-08-21T11:33:38;5.95;;;1.35;;
59756;SDS011;45631;51.962;5.974;2023-08-21T11:36:06;5.03;;;1.17;;
59756;SDS011;45631;51.962;5.974;2023-08-21T11:38:36;6.00;;;1.27;;
59756;SDS011;45631;51.962;5.974;2023-08-21T11:41:05;5.40;;;1.40;;
59756;SDS011;45631;51.962;5.974;2023-08-21T11:43:35;5.25;;;1.30;;
59756;SDS011;45631;51.962;5.974;2023-08-21T11:46:04;6.63;;;1.50;;
59756;SDS011;45631;51.962;5.974;2023-08-21T11:48:35;4.80;;;1.45;;
59756;SDS011;45631;51.962;5.974;2023-08-21T11:51:04;7.13;;;1.40;;
59756;SDS011;45631;51.962;5.974;2023-08-21T11:53:35;8.75;;;1.40;;
59756;SDS011;45631;51.962;5.974;2023-08-21T11:56:10;5.63;;;1.40;;
59756;SDS011;45631;51.962;5.974;2023-08-21T11:58:39;7.90;;;1.50;;
59756;SDS011;45631;51.962;5.974;2023-08-21T12:01:07;5.80;;;1.45;;
59756;SDS011;45631;51.962;5.974;2023-08-21T12:03:36;5.22;;;1.25;;
59756;SDS011;45631;51.962;5.974;2023-08-21T12:06:06;4.82;;;1.30;;
59756;SDS011;45631;51.962;5.974;2023-08-21T12:08:38;5.13;;;1.30;;
59756;SDS011;45631;51.962;5.974;2023-08-21T12:11:07;6.70;;;1.50;;
59756;SDS011;45631;51.962;5.974;2023-08-21T12:13:39;5.47;;;1.48;;
59756;SDS011;45631;51.962;5.974;2023-08-21T12:16:07;6.80;;;1.50;;
59756;SDS011;45631;51.962;5.974;2023-08-21T12:18:36;5.95;;;1.23;;
59756;SDS011;45631;51.962;5.974;2023-08-21T12:21:04;6.60;;;1.75;;
59756;SDS011;45631;51.962;5.974;2023-08-21T12:23:34;5.78;;;1.23;;
59756;SDS011;45631;51.962;5.974;2023-08-21T12:26:02;7.00;;;1.45;;
59756;SDS011;45631;51.962;5.974;2023-08-21T12:28:30;7.07;;;1.70;;
59756;SDS011;45631;51.962;5.974;2023-08-21T12:31:00;7.75;;;1.52;;
59756;SDS011;45631;51.962;5.974;2023-08-21T12:33:28;6.15;;;1.35;;
59756;SDS011;45631;51.962;5.974;2023-08-21T12:35:56;6.22;;;1.48;;
59756;SDS011;45631;51.962;5.974;2023-08-21T12:38:24;6.40;;;1.40;;
59756;SDS011;45631;51.962;5.974;2023-08-21T12:40:56;5.15;;;1.10;;
59756;SDS011;45631;51.962;5.974;2023-08-21T12:43:24;8.60;;;1.63;;
59756;SDS011;45631;51.962;5.974;2023-08-21T12:45:52;5.75;;;1.33;;
59756;SDS011;45631;51.962;5.974;2023-08-21T12:48:22;6.13;;;1.30;;
59756;SDS011;45631;51.962;5.974;2023-08-21T12:50:50;4.47;;;1.30;;
59756;SDS011;45631;51.962;5.974;2023-08-21T12:53:18;4.97;;;1.27;;
59756;SDS011;45631;51.962;5.974;2023-08-21T12:55:47;5.85;;;1.40;;
59756;SDS011;45631;51.962;5.974;2023-08-21T12:58:15;8.02;;;1.63;;
59756;SDS011;45631;51.962;5.974;2023-08-21T13:00:47;6.63;;;1.50;;
59756;SDS011;45631;51.962;5.974;2023-08-21T13:03:15;5.88;;;1.60;;
59756;SDS011;45631;51.962;5.974;2023-08-21T13:05:44;6.47;;;1.58;;
59756;SDS011;45631;51.962;5.974;2023-08-21T13:08:13;5.82;;;1.80;;
59756;SDS011;45631;51.962;5.974;2023-08-21T13:10:41;5.47;;;1.58;;
59756;SDS011;45631;51.962;5.974;2023-08-21T13:13:09;5.63;;;1.65;;
59756;SDS011;45631;51.962;5.974;2023-08-21T13:15:38;5.68;;;1.50;;
59756;SDS011;45631;51.962;5.974;2023-08-21T13:18:06;7.45;;;1.60;;
59756;SDS011;45631;51.962;5.974;2023-08-21T13:20:34;5.40;;;1.38;;
59756;SDS011;45631;51.962;5.974;2023-08-21T13:23:04;4.60;;;1.10;;
59756;SDS011;45631;51.962;5.974;2023-08-21T13:25:32;6.53;;;1.50;;
59756;SDS011;45631;51.962;5.974;2023-08-21T13:28:01;8.57;;;1.50;;
59756;SDS011;45631;51.962;5.974;2023-08-21T13:30:30;4.47;;;1.00;;
59756;SDS011;45631;51.962;5.974;2023-08-21T13:32:58;6.78;;;1.40;;
59756;SDS011;45631;51.962;5.974;2023-08-21T13:35:27;6.60;;;1.73;;
59756;SDS011;45631;51.962;5.974;2023-08-21T13:37:55;4.22;;;1.23;;
59756;SDS011;45631;51.962;5.974;2023-08-21T13:40:24;8.00;;;1.75;;
59756;SDS011;45631;51.962;5.974;2023-08-21T13:42:53;7.53;;;1.60;;
59756;SDS011;45631;51.962;5.974;2023-08-21T13:45:22;5.38;;;1.42;;
59756;SDS011;45631;51.962;5.974;2023-08-21T13:47:51;6.57;;;1.63;;
59756;SDS011;45631;51.962;5.974;2023-08-21T13:50:19;5.07;;;1.38;;
59756;SDS011;45631;51.962;5.974;2023-08-21T13:52:47;4.18;;;1.50;;
59756;SDS011;45631;51.962;5.974;2023-08-21T13:55:16;6.22;;;1.30;;
59756;SDS011;45631;51.962;5.974;2023-08-21T13:57:46;7.13;;;1.50;;
59756;SDS011;45631;51.962;5.974;2023-08-21T14:00:14;7.20;;;1.80;;
59756;SDS011;45631;51.962;5.974;2023-08-21T14:02:44;7.40;;;1.73;;
59756;SDS011;45631;51.962;5.974;2023-08-21T14:05:12;5.80;;;1.63;;
59756;SDS011;45631;51.962;5.974;2023-08-21T14:07:41;7.32;;;1.90;;
59756;SDS011;45631;51.962;5.974;2023-08-21T14:10:09;5.78;;;1.45;;
59756;SDS011;45631;51.962;5.974;2023-08-21T14:12:38;5.95;;;1.40;;
59756;SDS011;45631;51.962;5.974;2023-08-21T14:15:09;6.88;;;1.20;;
59756;SDS011;45631;51.962;5.974;2023-08-21T14:17:38;3.65;;;0.93;;
59756;SDS011;45631;51.962;5.974;2023-08-21T14:20:07;3.60;;;1.00;;
59756;SDS011;45631;51.962;5.974;2023-08-21T14:22:36;5.15;;;1.08;;
59756;SDS011;45631;51.962;5.974;2023-08-21T14:25:04;5.63;;;1.38;;
59756;SDS011;45631;51.962;5.974;2023-08-21T14:27:33;5.03;;;1.00;;
59756;SDS011;45631;51.962;5.974;2023-08-21T14:30:03;5.85;;;1.10;;
59756;SDS011;45631;51.962;5.974;2023-08-21T14:32:33;5.15;;;0.93;;
59756;SDS011;45631;51.962;5.974;2023-08-21T14:35:04;3.13;;;0.85;;
59756;SDS011;45631;51.962;5.974;2023-08-21T14:37:36;5.82;;;1.08;;
59756;SDS011;45631;51.962;5.974;2023-08-21T14:40:06;4.43;;;1.00;;
59756;SDS011;45631;51.962;5.974;2023-08-21T14:42:36;6.55;;;1.20;;
59756;SDS011;45631;51.962;5.974;2023-08-21T14:45:05;5.68;;;1.00;;
59756;SDS011;45631;51.962;5.974;2023-08-21T14:47:36;4.20;;;1.00;;
59756;SDS011;45631;51.962;5.974;2023-08-21T14:50:05;3.22;;;0.75;;
59756;SDS011;45631;51.962;5.974;2023-08-21T14:52:34;3.35;;;0.98;;
59756;SDS011;45631;51.962;5.974;2023-08-21T14:55:03;4.00;;;1.10;;
59756;SDS011;45631;51.962;5.974;2023-08-21T14:57:31;3.05;;;0.80;;
59756;SDS011;45631;51.962;5.974;2023-08-21T15:00:00;3.65;;;0.90;;